Time;durP1;ratioP1;P1;durP2;ratioP2;P2;SDS_P1;SDS_P2;PMS_P1;PMS_P2;Temp;Humidity;BMP_temperature;BMP_pressure;BME280_temperature;BME280_humidity;BME280_pressure;Samples;Min_cycle;Max_cycle;Signal;HPM_P1;HPM_P2
2021/09/09 00:00:15;;;;;;;9.82;5.35;;;;;;;24.53;43.36;100855.41;5016117;28;20060;-62
2021/09/09 00:02:40;;;;;;;11.15;5.25;;;;;;;24.51;43.76;100846.59;5005438;28;20368;-62
2021/09/09 00:05:08;;;;;;;12.90;5.70;;;;;;;24.47;44.01;100845.34;4994956;28;20037;-62
2021/09/09 00:07:33;;;;;;;12.40;6.45;;;;;;;24.48;43.47;100845.13;4995599;28;20034;-62
2021/09/09 00:09:59;;;;;;;10.93;6.13;;;;;;;24.45;43.58;100842.81;4994690;28;20475;-61
2021/09/09 00:12:25;;;;;;;10.82;5.80;;;;;;;24.42;43.79;100832.31;4995963;28;20023;-61
2021/09/09 00:14:50;;;;;;;13.60;5.93;;;;;;;24.41;44.03;100833.34;4996360;28;20037;-61
2021/09/09 00:17:16;;;;;;;12.15;6.40;;;;;;;24.42;44.09;100831.47;5010956;28;20034;-61
2021/09/09 00:19:41;;;;;;;14.80;6.68;;;;;;;24.36;43.88;100824.97;4995967;28;20026;-62
2021/09/09 00:22:07;;;;;;;16.23;6.00;;;;;;;24.37;44.56;100828.56;4995895;28;20029;-62
2021/09/09 00:24:32;;;;;;;11.38;6.18;;;;;;;24.34;44.20;100821.63;4995721;28;20526;-62
2021/09/09 00:26:57;;;;;;;11.80;6.28;;;;;;;24.32;44.20;100821.81;4995878;28;20033;-61
2021/09/09 00:29:23;;;;;;;10.95;5.85;;;;;;;24.31;44.07;100814.69;5010733;28;20121;-62
2021/09/09 00:31:48;;;;;;;13.43;5.35;;;;;;;24.27;44.75;100807.09;4995563;28;20376;-61
2021/09/09 00:34:14;;;;;;;11.48;5.80;;;;;;;24.24;44.52;100804.81;4994529;28;20119;-62
2021/09/09 00:36:39;;;;;;;12.02;6.25;;;;;;;24.26;44.79;100808.19;4994406;28;20030;-62
2021/09/09 00:39:04;;;;;;;8.88;5.75;;;;;;;24.26;44.85;100802.72;4995549;28;20030;-61
2021/09/09 00:41:30;;;;;;;12.75;6.13;;;;;;;24.26;43.79;100802.72;4995595;28;20034;-62
2021/09/09 00:43:56;;;;;;;9.23;5.25;;;;;;;24.27;44.80;100802.47;4994427;28;20034;-62
2021/09/09 00:46:23;;;;;;;13.10;6.00;;;;;;;24.26;44.39;100800.78;4995361;28;20030;-62
2021/09/09 00:48:48;;;;;;;13.55;6.40;;;;;;;24.22;44.72;100794.09;5013018;28;20474;-61
2021/09/09 00:51:14;;;;;;;12.77;6.25;;;;;;;24.26;44.42;100794.50;5013680;28;20072;-62
2021/09/09 00:53:41;;;;;;;11.60;6.07;;;;;;;24.26;43.92;100786.28;5014738;28;20036;-61
2021/09/09 00:56:07;;;;;;;10.65;6.35;;;;;;;24.26;43.91;100791.75;5014748;28;20084;-62
2021/09/09 00:58:34;;;;;;;11.73;6.65;;;;;;;24.25;43.97;100793.66;4997111;28;20038;-62
2021/09/09 01:00:59;;;;;;;10.93;6.13;;;;;;;24.24;44.91;100788.38;4997116;28;20022;-62
2021/09/09 01:03:24;;;;;;;11.65;5.60;;;;;;;24.25;44.43;100790.06;5014710;28;20037;-62
2021/09/09 01:05:50;;;;;;;11.80;6.57;;;;;;;24.25;43.94;100782.69;4996996;28;20033;-62
2021/09/09 01:08:15;;;;;;;10.60;6.75;;;;;;;24.27;44.05;100779.72;5014554;28;20113;-61
2021/09/09 01:10:40;;;;;;;13.10;6.38;;;;;;;24.26;44.15;100776.13;5014461;28;20475;-62
2021/09/09 01:13:09;;;;;;;9.85;6.53;;;;;;;24.28;44.66;100790.47;5008665;28;20093;-61
2021/09/09 01:15:41;;;;;;;12.00;6.53;;;;;;;24.26;44.74;100776.13;4994973;28;20027;-61
2021/09/09 01:18:10;;;;;;;;;;;;;;;24.30;43.86;100784.75;4977657;28;20045;-61
2021/09/09 01:20:36;;;;;;;11.77;6.50;;;;;;;24.30;44.82;100785.59;4992656;28;20329;-62
2021/09/09 01:23:01;;;;;;;12.93;7.05;;;;;;;24.31;44.13;100780.97;4977142;28;20077;-62
2021/09/09 01:25:27;;;;;;;11.57;6.47;;;;;;;24.33;44.89;100778.84;4994907;28;20136;-62
2021/09/09 01:27:52;;;;;;;12.45;6.22;;;;;;;24.34;44.54;100769.59;4980071;28;20026;-62
2021/09/09 01:30:17;;;;;;;15.50;6.90;;;;;;;24.31;44.35;100765.38;4996436;28;20394;-62
2021/09/09 01:32:43;;;;;;;12.25;6.60;;;;;;;24.33;44.54;100762.41;5014323;28;20057;-62
2021/09/09 01:35:09;;;;;;;10.93;6.68;;;;;;;24.35;44.53;100763.03;5013983;28;20025;-61
2021/09/09 01:37:34;;;;;;;10.93;7.10;;;;;;;24.34;44.50;100750.41;4996821;28;20474;-62
2021/09/09 01:40:00;;;;;;;10.88;6.72;;;;;;;24.33;44.19;100748.72;5013886;28;20038;-61
2021/09/09 01:42:25;;;;;;;13.27;6.78;;;;;;;24.34;45.01;100758.63;5014298;28;20026;-61
2021/09/09 01:44:51;;;;;;;12.43;6.97;;;;;;;24.36;43.93;100755.66;4996460;28;20038;-62
2021/09/09 01:47:16;;;;;;;16.23;6.97;;;;;;;24.37;44.99;100758.19;4998197;28;20075;-62
2021/09/09 01:49:42;;;;;;;17.02;6.63;;;;;;;24.34;44.58;100748.50;5013965;28;20038;-62
2021/09/09 01:52:07;;;;;;;11.80;6.82;;;;;;;24.36;44.91;100745.53;4977001;28;20383;-61
2021/09/09 01:54:32;;;;;;;10.35;6.40;;;;;;;24.37;44.01;100755.44;4994477;28;20121;-62
2021/09/09 01:56:58;;;;;;;14.27;6.95;;;;;;;24.36;44.85;100753.75;4994921;28;20073;-61
2021/09/09 01:59:23;;;;;;;11.65;6.90;;;;;;;24.36;45.01;100756.50;4994505;28;20034;-61
2021/09/09 02:01:48;;;;;;;13.55;6.70;;;;;;;24.37;44.20;100758.19;5009342;28;20439;-61
2021/09/09 02:04:14;;;;;;;10.88;6.80;;;;;;;24.37;45.01;100757.34;4993311;28;20030;-62
2021/09/09 02:06:39;;;;;;;16.45;7.05;;;;;;;24.36;44.47;100750.19;4992973;28;20033;-61
2021/09/09 02:09:05;;;;;;;12.38;6.45;;;;;;;24.36;44.43;100756.50;4993166;28;20036;-62
2021/09/09 02:11:31;;;;;;;12.48;6.90;;;;;;;24.34;44.70;100750.41;4994292;28;20026;-62
2021/09/09 02:13:56;;;;;;;9.93;6.25;;;;;;;24.30;43.94;100757.38;4992937;28;20033;-61
2021/09/09 02:16:21;;;;;;;13.98;7.07;;;;;;;24.24;44.25;100750.03;4994075;28;20030;-62
2021/09/09 02:18:47;;;;;;;12.40;6.57;;;;;;;24.24;43.93;100758.25;4992923;28;20034;-61
2021/09/09 02:21:12;;;;;;;13.75;6.35;;;;;;;24.20;44.87;100759.78;4992964;28;20022;-61
2021/09/09 02:23:38;;;;;;;11.77;6.20;;;;;;;24.16;44.94;100764.84;4993888;28;20027;-61
2021/09/09 02:26:04;;;;;;;12.93;6.63;;;;;;;24.11;44.17;100752.88;4993008;28;20416;-62
2021/09/09 02:28:30;;;;;;;14.57;6.60;;;;;;;24.08;45.06;100764.22;4993100;28;20125;-62
2021/09/09 02:30:55;;;;;;;11.10;6.60;;;;;;;24.03;44.14;100761.31;4995521;28;20026;-61
2021/09/09 02:33:20;;;;;;;10.65;6.20;;;;;;;23.98;44.89;100758.38;4997004;28;20069;-61
2021/09/09 02:35:46;;;;;;;11.93;7.47;;;;;;;23.94;44.90;100762.59;4997983;28;20062;-61
2021/09/09 02:38:11;;;;;;;12.38;6.93;;;;;;;23.90;44.61;100764.13;4998131;28;20031;-61
2021/09/09 02:40:37;;;;;;;11.30;7.20;;;;;;;23.86;45.32;100754.66;4998323;28;20030;-61
2021/09/09 02:43:02;;;;;;;12.90;6.15;;;;;;;23.82;44.39;100758.84;4997717;28;20022;-61
2021/09/09 02:45:27;;;;;;;10.55;6.32;;;;;;;23.79;44.32;100749.19;4997977;28;20038;-61
2021/09/09 02:47:53;;;;;;;13.85;6.25;;;;;;;23.76;44.75;100744.16;5008041;28;20053;-64
2021/09/09 02:50:18;;;;;;;11.98;6.05;;;;;;;23.71;45.17;100744.81;5017344;28;20025;-63
2021/09/09 02:52:44;;;;;;;9.18;5.70;;;;;;;23.69;45.43;100755.16;5017198;28;20030;-62
2021/09/09 02:55:10;;;;;;;16.05;6.75;;;;;;;23.66;45.55;100750.09;5017611;28;20034;-64
2021/09/09 02:57:37;;;;;;;11.98;6.55;;;;;;;23.63;44.99;100749.69;4999889;28;20022;-63
2021/09/09 03:00:04;;;;;;;10.35;5.90;;;;;;;23.58;45.39;100742.13;4999397;28;20021;-64
2021/09/09 03:02:29;;;;;;;10.00;6.18;;;;;;;23.60;45.52;100745.50;5015872;28;20113;-62
2021/09/09 03:04:55;;;;;;;12.07;6.07;;;;;;;23.57;45.72;100740.44;5017095;28;20065;-63
2021/09/09 03:07:20;;;;;;;12.23;6.38;;;;;;;23.52;44.73;100736.69;5016929;28;20432;-64
2021/09/09 03:09:46;;;;;;;8.50;5.97;;;;;;;23.51;45.85;100738.56;5016241;28;20034;-63
2021/09/09 03:12:11;;;;;;;12.48;5.90;;;;;;;23.46;45.85;100735.66;5016866;28;20033;-63
2021/09/09 03:14:36;;;;;;;8.30;5.28;;;;;;;23.43;45.11;100730.59;4999274;28;20112;-63
2021/09/09 03:17:02;;;;;;;14.00;5.88;;;;;;;23.42;45.20;100739.84;4999356;28;20026;-63
2021/09/09 03:19:27;;;;;;;11.10;5.55;;;;;;;23.38;45.92;100727.69;4999343;28;20489;-63
2021/09/09 03:21:53;;;;;;;11.05;7.05;;;;;;;23.37;45.02;100728.69;5016906;28;20033;-64
2021/09/09 03:24:18;;;;;;;10.18;5.55;;;;;;;23.34;45.27;100734.59;5016758;28;20030;-64
2021/09/09 03:26:44;;;;;;;11.25;5.70;;;;;;;23.33;45.90;100724.72;4998919;28;20030;-63
2021/09/09 03:29:09;;;;;;;11.60;6.07;;;;;;;23.32;46.01;100720.31;5016771;28;20397;-63
2021/09/09 03:31:35;;;;;;;12.50;7.13;;;;;;;23.29;45.42;100720.72;5016472;28;20100;-63
2021/09/09 03:34:00;;;;;;;11.57;7.18;;;;;;;23.28;45.37;100713.59;4999130;28;20041;-63
2021/09/09 03:36:25;;;;;;;12.20;6.03;;;;;;;23.29;45.38;100720.72;5016605;28;20100;-63
2021/09/09 03:38:51;;;;;;;14.70;5.63;;;;;;;23.28;45.20;100719.06;4999137;28;20030;-63
2021/09/09 03:41:16;;;;;;;12.98;6.90;;;;;;;23.28;46.40;100724.53;5016433;28;20042;-63
2021/09/09 03:43:42;;;;;;;8.82;5.97;;;;;;;23.30;45.15;100730.63;4991141;28;20490;-63
2021/09/09 03:46:07;;;;;;;11.40;6.45;;;;;;;23.32;46.20;100742.19;4976135;28;20117;-64
2021/09/09 03:48:33;;;;;;;15.73;6.97;;;;;;;23.33;46.11;100738.41;4992477;28;20066;-63
2021/09/09 03:50:58;;;;;;;15.90;6.60;;;;;;;23.33;45.92;100729.34;4979332;28;20594;-63
2021/09/09 03:53:23;;;;;;;14.23;6.68;;;;;;;23.30;45.83;100727.88;4996385;28;20035;-61
2021/09/09 03:55:49;;;;;;;10.75;6.18;;;;;;;23.30;45.88;100733.34;4996326;28;20038;-64
2021/09/09 03:58:14;;;;;;;11.35;6.45;;;;;;;23.29;46.38;100737.13;4996420;28;20111;-63
2021/09/09 04:00:39;;;;;;;11.45;6.40;;;;;;;23.29;45.58;100741.75;4996507;28;20113;-63
2021/09/09 04:03:05;;;;;;;13.88;7.95;;;;;;;23.28;45.18;100746.41;5013190;28;20033;-64
2021/09/09 04:05:31;;;;;;;13.13;7.25;;;;;;;23.28;45.77;100751.88;4998115;28;20065;-64
2021/09/09 04:07:56;;;;;;;14.40;6.93;;;;;;;23.27;46.08;100750.19;5015971;28;20030;-64
2021/09/09 04:10:21;;;;;;;17.08;8.13;;;;;;;23.24;46.08;100750.63;4998375;28;20040;-63
2021/09/09 04:12:47;;;;;;;11.65;6.55;;;;;;;23.24;45.84;100744.28;5015644;28;20467;-64
2021/09/09 04:15:12;;;;;;;16.25;6.82;;;;;;;23.22;46.61;100741.78;5015791;28;20092;-63
2021/09/09 04:17:38;;;;;;;12.13;6.00;;;;;;;23.19;46.24;100742.22;5015896;28;20057;-64
2021/09/09 04:20:07;;;;;;;17.13;7.22;;;;;;;23.19;45.72;100744.94;5004268;28;20022;-63
2021/09/09 04:22:32;;;;;;;14.52;7.38;;;;;;;23.17;45.75;100733.41;4996394;28;20041;-64
2021/09/09 04:24:58;;;;;;;14.52;6.80;;;;;;;23.16;46.10;100731.72;4978768;28;20038;-63
2021/09/09 04:27:24;;;;;;;13.00;7.00;;;;;;;23.14;46.15;100725.63;4978476;28;20108;-64
2021/09/09 04:29:50;;;;;;;14.20;6.63;;;;;;;23.13;46.83;100732.97;4996057;28;20491;-63
2021/09/09 04:32:16;;;;;;;11.32;7.13;;;;;;;23.14;46.58;100722.88;4978448;28;20018;-63
2021/09/09 04:34:41;;;;;;;17.45;7.18;;;;;;;23.11;46.67;100724.16;4995987;28;20085;-63
2021/09/09 04:37:07;;;;;;;13.75;7.43;;;;;;;23.05;45.69;100705.88;4995868;28;20033;-63
2021/09/09 04:39:32;;;;;;;15.07;7.88;;;;;;;23.05;46.52;100713.22;4995938;28;20034;-64
2021/09/09 04:41:58;;;;;;;13.07;7.32;;;;;;;23.05;46.36;100719.53;4962200;28;20034;-63
2021/09/09 04:44:24;;;;;;;15.07;6.63;;;;;;;23.04;46.08;100717.00;5011920;28;20034;-64
2021/09/09 04:46:49;;;;;;;12.73;6.55;;;;;;;23.06;46.76;100725.84;5015115;28;20025;-63
2021/09/09 04:49:15;;;;;;;13.98;7.47;;;;;;;23.03;46.81;100720.81;5014764;28;20057;-63
2021/09/09 04:51:40;;;;;;;13.75;6.00;;;;;;;23.01;46.49;100722.88;5014880;28;20038;-64
2021/09/09 04:54:06;;;;;;;12.30;6.78;;;;;;;22.99;46.50;100719.53;5013642;28;20040;-63
2021/09/09 04:56:31;;;;;;;11.75;6.68;;;;;;;22.98;45.77;100734.25;5013862;28;20176;-63
2021/09/09 04:58:57;;;;;;;10.68;6.22;;;;;;;22.96;46.77;100736.34;5030106;28;20144;-63
2021/09/09 05:01:23;;;;;;;9.82;6.40;;;;;;;22.95;46.53;100729.19;5015470;28;20022;-63
2021/09/09 05:03:48;;;;;;;12.40;6.32;;;;;;;22.95;45.89;100734.66;4999167;28;20534;-64
2021/09/09 05:06:14;;;;;;;14.88;6.20;;;;;;;22.90;46.79;100721.66;4995087;28;20034;-64
2021/09/09 05:08:39;;;;;;;10.40;6.30;;;;;;;22.92;46.08;100725.00;4995011;28;20372;-64
2021/09/09 05:11:08;;;;;;;11.35;6.75;;;;;;;22.91;46.07;100727.97;4995305;28;20030;-64
2021/09/09 05:13:33;;;;;;;11.82;7.78;;;;;;;22.93;46.25;100728.56;4995323;28;20026;-62
2021/09/09 05:15:58;;;;;;;11.20;6.75;;;;;;;22.95;45.97;100731.94;4995078;28;20502;-64
2021/09/09 05:18:24;;;;;;;20.00;6.93;;;;;;;22.94;46.94;100722.06;4994005;28;20038;-62
2021/09/09 05:20:49;;;;;;;15.65;6.93;;;;;;;22.96;46.30;100730.91;5011566;28;20029;-62
2021/09/09 05:23:15;;;;;;;10.88;6.50;;;;;;;22.96;46.26;100723.53;5014651;28;20112;-62
2021/09/09 05:25:41;;;;;;;10.48;6.07;;;;;;;23.00;46.19;100722.03;5015220;28;20030;-61
2021/09/09 05:28:06;;;;;;;11.48;5.90;;;;;;;23.01;46.40;100723.75;5013195;28;20041;-62
2021/09/09 05:30:31;;;;;;;9.57;5.82;;;;;;;23.03;46.51;100720.81;5014585;28;20084;-62
2021/09/09 05:32:57;;;;;;;15.27;6.32;;;;;;;23.08;46.02;100723.75;5013282;28;20050;-62
2021/09/09 05:35:22;;;;;;;12.13;6.90;;;;;;;23.13;45.98;100721.19;5000982;28;20031;-63
2021/09/09 05:37:48;;;;;;;18.45;8.13;;;;;;;23.17;47.06;100717.81;4994817;28;20038;-61
2021/09/09 05:40:13;;;;;;;10.60;6.45;;;;;;;23.25;46.86;100719.50;4993769;28;20062;-62
2021/09/09 05:42:38;;;;;;;13.30;6.22;;;;;;;23.30;46.22;100716.97;4994725;28;20031;-62
2021/09/09 05:45:04;;;;;;;10.55;7.28;;;;;;;23.39;46.10;100715.72;4993441;28;20507;-62
2021/09/09 05:47:30;;;;;;;11.38;6.68;;;;;;;23.47;45.98;100717.34;4993521;28;20050;-62
2021/09/09 05:49:55;;;;;;;14.05;6.50;;;;;;;23.55;46.04;100726.16;5002252;28;20029;-62
2021/09/09 05:52:21;;;;;;;12.88;6.13;;;;;;;23.66;46.84;100724.63;5012824;28;20128;-62
2021/09/09 05:54:47;;;;;;;14.15;6.97;;;;;;;23.74;46.41;100724.38;5014122;28;20034;-62
2021/09/09 05:57:12;;;;;;;15.35;6.88;;;;;;;23.88;46.74;100725.16;5017213;28;20027;-62
2021/09/09 05:59:37;;;;;;;18.00;7.30;;;;;;;24.00;46.53;100732.47;4974922;28;20031;-62
2021/09/09 06:02:04;;;;;;;11.77;7.07;;;;;;;24.14;46.45;100733.28;4974850;28;20035;-62
2021/09/09 06:04:34;;;;;;;11.75;7.70;;;;;;;24.30;46.12;100727.25;4974702;28;20406;-62
2021/09/09 06:07:00;;;;;;;14.38;7.63;;;;;;;24.43;46.47;100729.91;4974476;28;20438;-62
2021/09/09 06:09:25;;;;;;;12.35;6.57;;;;;;;24.58;46.45;100732.31;4957456;28;20023;-61
2021/09/09 06:11:50;;;;;;;13.80;6.75;;;;;;;24.71;46.03;100733.03;4973590;28;20399;-62
2021/09/09 06:14:16;;;;;;;14.02;7.03;;;;;;;24.84;45.69;100732.97;4989469;28;20023;-63
2021/09/09 06:16:41;;;;;;;14.93;6.93;;;;;;;24.97;46.10;100717.47;4993164;28;20464;-62
2021/09/09 06:19:06;;;;;;;16.02;6.50;;;;;;;25.11;45.55;100719.00;4993111;28;20434;-62
2021/09/09 06:21:32;;;;;;;15.45;6.75;;;;;;;25.25;45.44;100718.66;4993086;28;20034;-61
2021/09/09 06:23:57;;;;;;;11.70;6.45;;;;;;;25.41;45.43;100717.19;5009400;28;20026;-62
2021/09/09 06:26:23;;;;;;;10.55;6.93;;;;;;;25.56;45.24;100719.59;4993970;28;20033;-62
2021/09/09 06:28:48;;;;;;;15.80;6.22;;;;;;;25.70;45.44;100721.09;4993791;28;20034;-62
2021/09/09 06:31:14;;;;;;;13.02;6.97;;;;;;;25.83;45.08;100720.91;4993994;28;20367;-63
2021/09/09 06:33:39;;;;;;;11.30;7.30;;;;;;;25.93;44.75;100722.06;5008673;28;20509;-62
2021/09/09 06:36:05;;;;;;;13.73;6.80;;;;;;;26.09;45.02;100726.06;5013424;28;20030;-62
2021/09/09 06:38:30;;;;;;;14.32;6.85;;;;;;;26.24;44.83;100732.00;5013390;28;20030;-61
2021/09/09 06:40:56;;;;;;;10.20;6.60;;;;;;;26.40;44.92;100722.25;5013770;28;20030;-62
2021/09/09 06:43:21;;;;;;;10.82;6.70;;;;;;;26.56;44.92;100727.91;5013563;28;20459;-62
2021/09/09 06:45:47;;;;;;;13.88;7.30;;;;;;;26.73;44.25;100719.78;5012423;28;20478;-62
2021/09/09 06:48:12;;;;;;;15.88;6.80;;;;;;;26.89;44.40;100721.88;5018313;28;20061;-62
2021/09/09 06:50:39;;;;;;;11.70;6.72;;;;;;;27.03;43.99;100711.47;4993683;28;20550;-62
2021/09/09 06:53:04;;;;;;;15.25;6.57;;;;;;;27.22;44.58;100709.44;4993818;28;20033;-63
2021/09/09 06:55:29;;;;;;;10.90;7.00;;;;;;;27.39;44.19;100713.94;4993455;28;20031;-61
2021/09/09 06:57:55;;;;;;;15.13;7.18;;;;;;;27.56;44.40;100716.81;4992798;28;20035;-62
2021/09/09 07:00:20;;;;;;;14.75;6.90;;;;;;;27.72;43.11;100702.28;4994216;28;20034;-62
2021/09/09 07:02:46;;;;;;;18.65;6.50;;;;;;;27.88;43.55;100708.94;4998525;28;20516;-62
2021/09/09 07:05:11;;;;;;;14.70;7.78;;;;;;;28.08;42.88;100712.97;5012507;28;20060;-62
2021/09/09 07:07:38;;;;;;;11.13;6.78;;;;;;;28.25;42.78;100711.03;5013001;28;20136;-62
2021/09/09 07:10:04;;;;;;;13.82;7.22;;;;;;;28.47;43.13;100710.34;5013376;28;20026;-62
2021/09/09 07:12:29;;;;;;;11.90;6.35;;;;;;;28.62;42.36;100718.84;5013371;28;20181;-61
2021/09/09 07:14:54;;;;;;;16.20;6.93;;;;;;;28.80;42.27;100713.97;5011988;28;20057;-62
2021/09/09 07:17:20;;;;;;;19.15;7.55;;;;;;;28.97;42.29;100722.22;5012939;28;20065;-62
2021/09/09 07:19:45;;;;;;;13.48;7.32;;;;;;;29.16;41.66;100722.78;4997104;28;20467;-62
2021/09/09 07:22:11;;;;;;;15.90;7.35;;;;;;;29.32;41.99;100728.28;4997499;28;20034;-62
2021/09/09 07:24:36;;;;;;;14.18;6.60;;;;;;;29.53;41.97;100732.19;4997092;28;20038;-62
2021/09/09 07:27:01;;;;;;;17.40;7.43;;;;;;;29.70;41.05;100735.72;4996979;28;20037;-62
2021/09/09 07:29:27;;;;;;;14.73;6.78;;;;;;;29.90;41.25;100735.16;4996987;28;20034;-62
2021/09/09 07:31:52;;;;;;;12.82;7.05;;;;;;;30.11;40.54;100730.69;4995722;28;20091;-62
2021/09/09 07:34:17;;;;;;;11.85;5.30;;;;;;;30.29;40.79;100731.16;4997077;28;20557;-62
2021/09/09 07:36:43;;;;;;;8.65;5.40;;;;;;;30.46;40.75;100745.72;4995900;28;20379;-61
2021/09/09 07:39:09;;;;;;;10.48;5.47;;;;;;;30.65;40.95;100731.53;4996694;28;20030;-63
2021/09/09 07:41:34;;;;;;;10.40;4.25;;;;;;;30.86;40.33;100738.88;4997056;28;20104;-64
2021/09/09 07:44:00;;;;;;;8.52;4.57;;;;;;;31.00;40.15;100734.59;5024872;28;20038;-62
2021/09/09 07:46:26;;;;;;;10.15;4.10;;;;;;;31.21;39.88;100730.88;5015983;28;20030;-59
2021/09/09 07:48:52;;;;;;;8.50;4.10;;;;;;;31.40;39.56;100740.41;5016586;28;20073;-60
2021/09/09 07:51:18;;;;;;;7.15;4.93;;;;;;;31.58;39.70;100737.19;5016433;28;20057;-60
2021/09/09 07:53:45;;;;;;;9.32;4.70;;;;;;;31.71;39.08;100730.34;5016514;28;20077;-59
2021/09/09 07:56:11;;;;;;;6.22;4.50;;;;;;;31.85;39.21;100730.66;5016735;28;20061;-60
2021/09/09 07:58:36;;;;;;;6.88;4.72;;;;;;;32.01;39.26;100724.09;5016440;28;20022;-59
2021/09/09 08:01:02;;;;;;;9.63;4.95;;;;;;;32.22;38.65;100731.34;5015379;28;20478;-59
2021/09/09 08:03:27;;;;;;;6.28;4.20;;;;;;;32.38;38.82;100730.28;5006643;28;20050;-59
2021/09/09 08:05:53;;;;;;;10.10;4.85;;;;;;;32.57;37.81;100728.66;4996608;28;20438;-59
2021/09/09 08:08:19;;;;;;;11.52;5.20;;;;;;;32.73;38.32;100733.09;4996386;28;20026;-60
2021/09/09 08:10:44;;;;;;;8.30;5.00;;;;;;;32.92;37.48;100738.06;4996304;28;20336;-59
2021/09/09 08:13:09;;;;;;;10.45;4.88;;;;;;;33.08;37.88;100739.75;4996283;28;20029;-60
2021/09/09 08:15:37;;;;;;;11.43;4.25;;;;;;;33.22;38.05;100740.84;4995966;28;20107;-60
2021/09/09 08:18:02;;;;;;;9.48;5.03;;;;;;;33.35;36.97;100743.03;4995116;28;20034;-61
2021/09/09 08:20:28;;;;;;;9.15;4.97;;;;;;;33.52;36.70;100749.09;5010785;28;20037;-60
2021/09/09 08:22:53;;;;;;;6.22;4.97;;;;;;;33.61;37.40;100744.66;5015304;28;20029;-61
2021/09/09 08:25:18;;;;;;;12.57;4.70;;;;;;;33.69;37.25;100741.31;5015433;28;20049;-61
2021/09/09 08:27:44;;;;;;;8.93;5.28;;;;;;;33.79;36.65;100745.97;5015514;28;20033;-61
2021/09/09 08:30:09;;;;;;;11.65;5.15;;;;;;;33.87;36.71;100743.44;5014839;28;20041;-61
2021/09/09 08:32:35;;;;;;;11.27;4.88;;;;;;;33.98;36.26;100745.03;5015146;28;20080;-60
2021/09/09 08:35:00;;;;;;;6.72;4.97;;;;;;;34.16;37.00;100749.16;5014737;28;20394;-60
2021/09/09 08:37:26;;;;;;;12.50;4.68;;;;;;;34.33;37.11;100746.00;5015400;28;20026;-60
2021/09/09 08:39:51;;;;;;;7.05;4.45;;;;;;;34.49;36.29;100750.31;5015398;28;20025;-59
2021/09/09 08:42:18;;;;;;;11.65;4.43;;;;;;;34.67;35.86;100741.31;5014326;28;20042;-60
2021/09/09 08:44:46;;;;;;;6.82;4.28;;;;;;;34.89;35.75;100747.25;4996671;28;20041;-60
2021/09/09 08:47:11;;;;;;;5.72;4.38;;;;;;;35.03;35.66;100751.03;4994189;28;20061;-60
2021/09/09 08:49:37;;;;;;;7.70;4.55;;;;;;;35.29;35.66;100748.00;4994528;28;20069;-60
2021/09/09 08:52:04;;;;;;;10.77;4.72;;;;;;;35.51;35.74;100745.53;4995771;28;20042;-60
2021/09/09 08:54:33;;;;;;;5.68;4.25;;;;;;;35.73;35.48;100742.22;4995569;28;20050;-60
2021/09/09 08:56:58;;;;;;;8.82;4.03;;;;;;;35.72;35.28;100757.28;5010781;28;20221;-60
2021/09/09 08:59:24;;;;;;;7.88;4.03;;;;;;;35.82;35.14;100754.38;4995851;28;20113;-60
2021/09/09 09:02:05;;;;;;;4.55;4.07;;;;;;;35.96;35.01;100752.53;5010629;28;20031;-60
2021/09/09 09:04:32;;;;;;;6.07;4.53;;;;;;;35.97;35.31;100749.44;5013332;28;20108;-61
2021/09/09 09:06:57;;;;;;;8.27;4.72;;;;;;;35.94;35.82;100752.81;5014934;28;20041;-61
2021/09/09 09:09:25;;;;;;;6.32;3.92;;;;;;;35.74;35.85;100744.69;5013431;28;20390;-61
2021/09/09 09:11:52;;;;;;;9.60;4.35;;;;;;;35.81;35.56;100756.34;5014423;28;20029;-60
2021/09/09 09:14:22;;;;;;;7.35;4.13;;;;;;;35.73;35.67;100762.59;5014428;28;20491;-62
2021/09/09 09:16:57;;;;;;;8.85;3.88;;;;;;;35.80;35.49;100753.84;5013335;28;20030;-62
2021/09/09 09:19:24;;;;;;;8.30;3.75;;;;;;;35.60;36.13;100754.91;4994200;28;20023;-61
2021/09/09 09:22:04;;;;;;;5.18;3.05;;;;;;;35.40;35.90;100764.31;4975548;28;20098;-61
2021/09/09 09:24:33;;;;;;;5.25;2.80;;;;;;;35.29;35.59;100764.72;4975480;28;20018;-61
2021/09/09 09:27:21;;;;;;;6.25;2.97;;;;;;;35.23;36.55;100760.34;4975581;28;20464;-62
2021/09/09 09:30:09;;;;;;;6.30;2.50;;;;;;;35.51;35.41;100773.41;4975733;28;20027;-60
2021/09/09 09:32:35;;;;;;;5.25;2.17;;;;;;;35.51;35.53;100771.41;4974165;28;20074;-61
2021/09/09 09:35:12;;;;;;;4.55;3.08;;;;;;;35.72;34.91;100769.28;4990396;28;20030;-61
2021/09/09 09:38:00;;;;;;;4.53;3.03;;;;;;;35.70;35.57;100765.97;4975315;28;20031;-60
2021/09/09 09:40:42;;;;;;;6.75;2.90;;;;;;;35.56;36.16;100765.84;4974397;28;20035;-60
2021/09/09 09:43:08;;;;;;;;;;;;;;;35.50;35.66;100771.72;4984767;28;20100;-60
2021/09/09 09:45:33;;;;;;;7.35;3.22;;;;;;;35.44;36.14;100772.91;5012892;28;19964;-61
2021/09/09 09:47:59;;;;;;;7.68;3.10;;;;;;;35.41;35.61;100768.75;5014020;28;20450;-60
2021/09/09 09:50:24;;;;;;;6.88;4.00;;;;;;;36.83;33.95;100762.13;5013934;28;20117;-61
2021/09/09 09:53:17;;;;;;;7.15;3.35;;;;;;;36.62;34.67;100767.22;5013954;28;20036;-62
2021/09/09 09:55:43;;;;;;;3.67;3.03;;;;;;;36.19;35.02;100760.88;5014276;28;20429;-61
2021/09/09 09:58:08;;;;;;;4.63;3.50;;;;;;;35.94;35.49;100758.38;5014122;28;20037;-61
2021/09/09 10:00:34;;;;;;;4.25;2.85;;;;;;;36.10;34.92;100765.44;5016130;28;20061;-62
2021/09/09 10:02:59;;;;;;;6.85;4.00;;;;;;;35.95;35.24;100757.28;5023690;28;20038;-62
2021/09/09 10:05:25;;;;;;;7.90;3.92;;;;;;;35.91;36.17;100763.72;4993418;28;20116;-61
2021/09/09 10:07:50;;;;;;;4.95;3.08;;;;;;;35.76;35.73;100759.19;4993976;28;20415;-60
2021/09/09 10:10:16;;;;;;;6.43;3.03;;;;;;;35.63;35.45;100769.09;4994633;28;20049;-61
2021/09/09 10:12:44;;;;;;;4.68;3.20;;;;;;;35.82;35.67;100757.97;4994229;28;20132;-60
2021/09/09 10:15:12;;;;;;;5.57;3.00;;;;;;;36.88;34.46;100764.81;5010284;28;20034;-61
2021/09/09 10:17:38;;;;;;;6.43;2.97;;;;;;;37.77;33.36;100759.84;4993921;28;20080;-61
2021/09/09 10:20:25;;;;;;;4.03;2.50;;;;;;;37.93;33.87;100758.41;5020656;28;20109;-61
2021/09/09 10:23:00;;;;;;;6.10;3.20;;;;;;;38.84;32.42;100764.72;5013668;28;20096;-61
2021/09/09 10:25:39;;;;;;;6.72;2.90;;;;;;;39.46;33.05;100754.38;5014104;28;20030;-61
2021/09/09 10:28:38;;;;;;;6.68;2.40;;;;;;;40.01;32.26;100754.72;5013673;28;20034;-61
2021/09/09 10:31:07;;;;;;;4.93;2.30;;;;;;;40.43;31.04;100755.97;5013850;28;20088;-61
2021/09/09 10:33:34;;;;;;;3.17;2.30;;;;;;;40.86;31.13;100750.34;5012437;28;20459;-60
2021/09/09 10:36:00;;;;;;;3.78;2.13;;;;;;;41.24;30.44;100765.31;5012773;28;20046;-63
2021/09/09 10:38:29;;;;;;;2.13;1.88;;;;;;;41.58;29.88;100762.41;5014150;28;20475;-64
2021/09/09 10:40:55;;;;;;;3.38;2.22;;;;;;;41.02;31.09;100749.53;5013791;28;20072;-64
2021/09/09 10:43:23;;;;;;;3.83;2.17;;;;;;;41.33;30.16;100760.53;5021435;28;20113;-64
2021/09/09 10:45:49;;;;;;;4.13;2.10;;;;;;;40.80;30.38;100754.50;4993979;28;20049;-64
2021/09/09 10:48:14;;;;;;;4.72;2.35;;;;;;;40.48;31.23;100762.25;4992818;28;20129;-64
2021/09/09 10:50:40;;;;;;;4.30;2.17;;;;;;;40.26;30.84;100765.22;4993985;28;20478;-64
2021/09/09 10:53:09;;;;;;;4.47;3.10;;;;;;;40.77;29.90;100763.59;4997128;28;20030;-64
2021/09/09 10:55:37;;;;;;;3.22;2.20;;;;;;;41.23;29.63;100755.25;4996585;28;20038;-64
2021/09/09 10:58:27;;;;;;;3.38;2.47;;;;;;;41.69;29.48;100760.03;5017450;28;20363;-64
2021/09/09 11:01:05;;;;;;;3.38;2.33;;;;;;;42.02;29.05;100760.22;5009573;28;20037;-64
2021/09/09 11:03:50;;;;;;;4.18;2.67;;;;;;;42.32;28.54;100754.25;5017346;28;20024;-64
2021/09/09 11:06:17;;;;;;;3.45;2.30;;;;;;;42.61;28.64;100763.78;5017247;28;20044;-64
2021/09/09 11:08:45;;;;;;;7.25;2.85;;;;;;;42.78;28.31;100756.00;5017328;28;20075;-64
2021/09/09 11:11:15;;;;;;;4.38;2.80;;;;;;;42.98;28.15;100764.78;5017162;28;20394;-65
2021/09/09 11:13:41;;;;;;;4.03;2.83;;;;;;;43.07;27.81;100757.06;5007558;28;20105;-64
2021/09/09 11:16:24;;;;;;;2.80;2.30;;;;;;;42.82;28.25;100756.13;5012661;28;20118;-65